メインページ
METAR-TAF:

METAR-TAF

空港 :

ノースベイ, オンタリオ州, カナダ

緯度: 46-21N, 経度: 079-26W, 海抜: 358m

現時点の気象観測

当レポートは43分前の02:00(UTC)に作成
北/北西の風 3kt
気温 -9°C
湿度 92%
気圧 1019 hPa
視程: 9.7km
高度3400ftの雲は散在している
高度5000ftの曇り
小雪

METAR: CYYB 070200Z 33003KT 6SM -SN SCT034 OVC050 M09/M10 A3010 RMK SC3SC5 MOON DMLY VISBL SLP221

時間: 21:43 (02:43 UTC)

予報

当レポートは1時間5分前の01:38(UTC)に作成
予報は07日の 02時(UTC)から 07日の 14時(UTC)まで有効
北西の風 8kt
視程: 9.7km
高度3000ftの曇り
小雪
07日の 02時(UTC)から 07日の 04時(UTC)まで一時的に
高度2000ftの曇り
小雪
07日の 0400時(UTC)から
北西の風 8kt
視程: 10km
高度2000ftの雲は散在している
高度4000ftの千切れ雲あり
07日の 04時(UTC)から 07日の 14時(UTC)まで一時的に
視程: 4.8km
高度2000ftの曇り
小雪

TAF: CYYB 070138Z 0702/0714 31008KT 6SM -SN OVC030 TEMPO 0702/0704 21/2SM -SN OVC020 FM070400 31008KT P6SM SCT020 BKN040 TEMPO 0704/0714 3SM -SN OVC020 RMK NXT FCST BY 070800Z

4,000以上の空港の気象観測と天気予報(METAR報とTAF報)

利用可能な観測所は地図上に黄色い丸と赤い丸で示す。

丸の上にカーソルを重ねると観測所名を参照できる。

次にクリックすると気象観測と天気予報を参照できる。

マップの切り替え:黒色「×」印の緑ボタンをクリックして拡大、「-」印の緑ボタンをクリックして縮小、緑色の三角印をクリックして隣りの地図に切り替え


METAR-TAF: